Time;durP1;ratioP1;P1;durP2;ratioP2;P2;SDS_P1;SDS_P2;PMS_P1;PMS_P2;Temp;Humidity;BMP_temperature;BMP_pressure;BME280_temperature;BME280_humidity;BME280_pressure;Samples;Min_cycle;Max_cycle;Signal;HPM_P1;HPM_P2
2022/05/30 00:00:35;;;;;;;8.40;4.90;;;19.10;99.90;;;;;;5051474;28;20442;-65
2022/05/30 00:03:02;;;;;;;7.10;5.33;;;18.90;99.90;;;;;;5051654;28;20599;-65
2022/05/30 00:05:30;;;;;;;7.03;5.30;;;18.60;99.90;;;;;;5051509;28;20454;-66
2022/05/30 00:07:57;;;;;;;6.90;5.23;;;18.40;99.90;;;;;;5051293;28;20481;-65
2022/05/30 00:10:24;;;;;;;9.40;5.30;;;18.40;99.90;;;;;;5051124;28;20809;-64
2022/05/30 00:12:52;;;;;;;7.87;5.70;;;18.40;99.90;;;;;;5051412;28;20465;-62
2022/05/30 00:15:21;;;;;;;7.10;5.43;;;18.10;99.90;;;;;;5051267;28;20454;-64
2022/05/30 00:17:49;;;;;;;7.37;5.77;;;18.10;99.90;;;;;;5051196;28;20982;-64
2022/05/30 00:20:16;;;;;;;7.10;5.50;;;18.10;99.90;;;;;;5051222;28;20450;-65
2022/05/30 00:22:43;;;;;;;7.93;6.50;;;18.20;99.90;;;;;;5050958;28;20461;-63
2022/05/30 00:25:11;;;;;;;7.67;6.30;;;18.10;99.90;;;;;;5049651;28;20902;-64
2022/05/30 00:27:38;;;;;;;9.93;7.23;;;18.10;99.90;;;;;;5050799;28;20496;-65
2022/05/30 00:30:06;;;;;;;9.43;6.33;;;18.10;99.90;;;;;;5051004;28;20489;-61
2022/05/30 00:32:35;;;;;;;8.53;6.47;;;18.20;99.90;;;;;;5050940;28;20449;-65
2022/05/30 00:35:04;;;;;;;7.20;5.73;;;18.30;99.90;;;;;;5050618;28;20454;-63
2022/05/30 00:37:31;;;;;;;11.30;6.00;;;18.40;99.90;;;;;;5050589;28;20994;-64
2022/05/30 00:39:58;;;;;;;7.87;5.90;;;18.50;99.90;;;;;;5050717;28;20519;-64
2022/05/30 00:42:27;;;;;;;9.53;5.73;;;18.60;99.90;;;;;;5050154;28;20489;-62
2022/05/30 00:44:55;;;;;;;7.40;6.20;;;18.60;99.90;;;;;;5050665;28;20812;-63
2022/05/30 00:47:25;;;;;;;9.57;5.93;;;18.60;99.90;;;;;;5050698;28;20450;-65
2022/05/30 00:49:55;;;;;;;11.63;6.30;;;18.60;99.90;;;;;;5050447;28;20525;-65
2022/05/30 00:52:27;;;;;;;8.93;6.13;;;18.50;99.90;;;;;;5050301;28;20457;-62
2022/05/30 00:54:58;;;;;;;7.73;6.33;;;18.30;99.90;;;;;;5050424;28;20867;-63
2022/05/30 00:57:28;;;;;;;9.03;5.63;;;18.20;99.90;;;;;;5050491;28;20449;-65
2022/05/30 00:59:59;;;;;;;7.47;6.03;;;18.30;99.90;;;;;;5049976;28;20449;-64
2022/05/30 01:02:29;;;;;;;9.97;6.13;;;18.50;99.90;;;;;;5050149;28;20797;-64
2022/05/30 01:07:43;;;;;;;8.00;6.77;;;18.10;99.90;;;;;;5050258;28;20477;-63
2022/05/30 01:10:13;;;;;;;9.87;6.07;;;17.70;99.90;;;;;;5050148;28;20493;-62
2022/05/30 01:12:42;;;;;;;7.13;5.73;;;17.80;99.90;;;;;;5049818;28;20457;-64
2022/05/30 01:15:14;;;;;;;8.17;5.60;;;17.90;99.90;;;;;;5050129;28;20462;-64
2022/05/30 01:17:49;;;;;;;7.70;5.90;;;18.10;99.90;;;;;;5049843;28;20510;-61
2022/05/30 01:20:45;;;;;;;9.30;6.13;;;18.20;99.90;;;;;;5050210;28;20524;-65
2022/05/30 01:23:28;;;;;;;10.20;5.90;;;18.20;99.90;;;;;;5049905;28;20880;-64
2022/05/30 01:26:27;;;;;;;7.87;5.53;;;18.20;99.90;;;;;;5050199;28;20449;-64
2022/05/30 01:29:01;;;;;;;8.40;5.73;;;18.20;99.90;;;;;;5033910;28;20481;-64
2022/05/30 01:31:29;;;;;;;8.60;6.00;;;18.00;99.90;;;;;;5049775;28;20572;-63
2022/05/30 01:33:57;;;;;;;8.90;6.03;;;17.90;99.90;;;;;;5049825;28;20949;-64
2022/05/30 01:36:25;;;;;;;9.10;6.10;;;17.80;99.90;;;;;;5049758;28;20456;-64
2022/05/30 01:38:52;;;;;;;8.20;5.90;;;18.00;99.90;;;;;;5049785;28;20470;-64
2022/05/30 01:41:19;;;;;;;13.70;6.50;;;18.10;99.90;;;;;;5049618;28;20453;-60
2022/05/30 01:43:47;;;;;;;8.00;5.60;;;18.00;99.90;;;;;;5049842;28;20460;-64
2022/05/30 01:46:17;;;;;;;8.13;6.00;;;17.90;99.90;;;;;;5049819;28;20450;-63
2022/05/30 01:48:45;;;;;;;11.60;5.77;;;17.90;99.90;;;;;;5049498;28;20469;-65
2022/05/30 01:51:13;;;;;;;6.90;5.70;;;18.00;99.90;;;;;;5049830;28;20489;-61
2022/05/30 01:53:40;;;;;;;11.73;6.03;;;18.10;99.90;;;;;;5049674;28;20458;-64
2022/05/30 01:56:08;;;;;;;7.00;5.60;;;17.90;99.90;;;;;;5049788;28;20454;-63
2022/05/30 01:58:36;;;;;;;8.60;6.87;;;17.60;99.90;;;;;;5049367;28;20457;-63
2022/05/30 02:01:05;;;;;;;11.10;5.93;;;17.30;99.90;;;;;;5049712;28;20453;-63
2022/05/30 02:03:34;;;;;;;7.00;5.10;;;17.40;99.90;;;;;;5049446;28;20458;-66
2022/05/30 02:06:02;;;;;;;8.80;5.93;;;17.50;99.90;;;;;;5049666;28;20806;-65
2022/05/30 02:08:29;;;;;;;7.60;5.10;;;17.60;99.90;;;;;;5049757;28;20962;-62
2022/05/30 02:10:56;;;;;;;6.23;4.23;;;17.70;99.90;;;;;;5049183;28;20490;-65
2022/05/30 02:13:24;;;;;;;6.70;4.80;;;17.70;99.90;;;;;;5049242;28;20449;-63
2022/05/30 02:18:37;;;;;;;6.80;5.23;;;17.80;99.90;;;;;;5049543;28;20445;-62
2022/05/30 02:21:04;;;;;;;8.57;5.77;;;17.80;99.90;;;;;;5049641;28;20977;-64
2022/05/30 02:23:31;;;;;;;7.27;5.70;;;17.80;99.90;;;;;;5049246;28;20541;-64
2022/05/30 02:25:58;;;;;;;8.77;5.37;;;17.70;99.90;;;;;;5049141;28;20926;-62
2022/05/30 02:28:26;;;;;;;7.53;5.00;;;17.70;99.90;;;;;;5049184;28;20783;-64
2022/05/30 02:30:53;;;;;;;7.07;5.23;;;17.70;99.90;;;;;;5049390;28;21004;-66
2022/05/30 02:38:51;;;;;;;8.73;5.20;;;18.10;99.90;;;;;;5049506;28;20857;-65
2022/05/30 02:41:18;;;;;;;9.90;6.20;;;18.00;99.90;;;;;;5048803;28;20819;-63
2022/05/30 02:43:46;;;;;;;6.80;5.00;;;18.00;99.90;;;;;;5049204;28;20540;-63
2022/05/30 02:46:13;;;;;;;7.83;5.57;;;18.00;99.90;;;;;;5049452;28;20537;-62
2022/05/30 02:48:40;;;;;;;9.03;5.07;;;18.00;99.90;;;;;;5050313;28;20469;-65
2022/05/30 02:51:09;;;;;;;9.87;5.83;;;17.90;99.90;;;;;;5052786;28;20485;-62
2022/05/30 02:53:37;;;;;;;7.27;5.70;;;17.90;99.90;;;;;;5052852;28;20450;-63
2022/05/30 02:56:05;;;;;;;7.93;5.07;;;17.90;99.90;;;;;;5053024;28;20503;-65
2022/05/30 02:58:32;;;;;;;8.17;5.70;;;18.00;99.90;;;;;;5052744;28;20470;-61
2022/05/30 03:00:59;;;;;;;11.97;6.27;;;18.00;99.90;;;;;;5052359;28;20457;-62
2022/05/30 03:03:26;;;;;;;8.50;5.60;;;17.90;99.90;;;;;;5052472;28;20457;-62
2022/05/30 03:05:54;;;;;;;8.53;5.23;;;17.60;99.90;;;;;;5052432;28;20472;-64
2022/05/30 03:08:23;;;;;;;11.10;5.83;;;17.20;99.90;;;;;;5052576;28;20473;-62
2022/05/30 03:10:50;;;;;;;9.43;6.27;;;17.00;99.90;;;;;;5052511;28;20489;-62
2022/05/30 03:13:17;;;;;;;8.00;6.37;;;16.70;99.90;;;;;;5052745;28;20449;-63
2022/05/30 03:15:44;;;;;;;10.20;6.60;;;16.50;99.90;;;;;;5052541;28;20772;-65
2022/05/30 03:18:11;;;;;;;10.40;6.30;;;16.50;99.90;;;;;;5052274;28;20473;-63
2022/05/30 03:20:39;;;;;;;8.70;6.90;;;16.60;99.90;;;;;;5052253;28;20450;-65
2022/05/30 03:23:06;;;;;;;10.67;6.70;;;16.70;99.90;;;;;;5052392;28;20493;-63
2022/05/30 03:25:35;;;;;;;10.17;6.60;;;16.90;99.90;;;;;;5052255;28;20454;-63
2022/05/30 03:28:03;;;;;;;8.80;6.07;;;16.80;99.90;;;;;;5052111;28;20834;-65
2022/05/30 03:30:36;;;;;;;8.47;5.60;;;16.80;99.90;;;;;;5052274;28;20485;-68
2022/05/30 03:33:04;;;;;;;10.00;6.50;;;16.90;99.90;;;;;;5052162;28;20802;-63
2022/05/30 03:35:31;;;;;;;10.83;6.30;;;16.90;99.90;;;;;;5052112;28;20537;-65
2022/05/30 03:37:58;;;;;;;8.80;6.20;;;16.90;99.90;;;;;;5052011;28;20860;-64
2022/05/30 03:40:26;;;;;;;10.60;6.53;;;17.00;99.90;;;;;;5052041;28;20449;-65
2022/05/30 03:42:54;;;;;;;9.37;6.97;;;17.20;99.90;;;;;;5051598;28;20493;-64
2022/05/30 03:45:22;;;;;;;12.27;7.63;;;17.20;99.90;;;;;;5051660;28;20498;-64
2022/05/30 03:47:49;;;;;;;8.90;6.67;;;17.30;99.90;;;;;;5051941;28;20474;-66
2022/05/30 03:50:19;;;;;;;9.37;6.40;;;17.30;99.90;;;;;;5051915;28;20508;-67
2022/05/30 03:52:46;;;;;;;9.70;6.47;;;17.20;99.90;;;;;;5051320;28;20457;-65
2022/05/30 03:55:15;;;;;;;9.33;7.17;;;17.10;99.90;;;;;;5051966;28;20458;-67
2022/05/30 03:57:44;;;;;;;10.53;7.10;;;17.00;99.90;;;;;;5051814;28;20481;-63
2022/05/30 04:00:16;;;;;;;10.37;7.20;;;17.00;99.90;;;;;;5051170;28;20489;-67
2022/05/30 04:02:43;;;;;;;8.60;7.20;;;16.90;99.90;;;;;;5051430;28;20450;-68
2022/05/30 04:05:11;;;;;;;10.00;6.77;;;16.80;99.90;;;;;;5051523;28;20565;-68
2022/05/30 04:07:38;;;;;;;10.40;7.47;;;17.00;99.90;;;;;;5051412;28;20470;-67
2022/05/30 04:10:06;;;;;;;9.17;7.93;;;17.10;99.90;;;;;;5051134;28;20783;-68
2022/05/30 04:12:34;;;;;;;10.50;7.60;;;17.30;99.90;;;;;;5051106;28;20949;-69
2022/05/30 04:15:02;;;;;;;9.17;7.30;;;17.40;99.90;;;;;;5051439;28;20849;-67
2022/05/30 04:17:34;;;;;;;8.07;6.50;;;17.50;99.90;;;;;;5051342;28;20585;-68
2022/05/30 04:20:01;;;;;;;8.50;7.10;;;17.50;99.90;;;;;;5051185;28;20452;-66
2022/05/30 04:22:28;;;;;;;10.60;7.90;;;17.30;99.90;;;;;;5050822;28;20825;-68
2022/05/30 04:24:56;;;;;;;12.33;6.80;;;17.20;99.90;;;;;;5051083;28;20450;-68
2022/05/30 04:27:24;;;;;;;11.27;7.10;;;17.10;99.90;;;;;;5051219;28;20830;-68
2022/05/30 04:29:51;;;;;;;9.90;7.97;;;17.20;99.90;;;;;;5051287;28;20468;-69
2022/05/30 04:32:18;;;;;;;9.30;7.80;;;17.40;99.90;;;;;;5051174;28;20490;-69
2022/05/30 04:34:47;;;;;;;8.20;6.43;;;17.60;99.90;;;;;;5051225;28;20511;-67
2022/05/30 04:37:14;;;;;;;9.47;7.23;;;17.80;99.90;;;;;;5051240;28;20894;-68
2022/05/30 04:39:41;;;;;;;9.50;7.00;;;17.90;99.90;;;;;;5050974;28;20454;-66
2022/05/30 04:42:09;;;;;;;9.10;6.50;;;17.90;99.90;;;;;;5050678;28;20616;-70
2022/05/30 04:44:36;;;;;;;7.83;6.57;;;17.90;99.90;;;;;;5033088;28;20454;-68
2022/05/30 04:47:05;;;;;;;8.57;6.03;;;18.00;99.90;;;;;;5050762;28;20465;-68
2022/05/30 04:49:32;;;;;;;11.27;7.23;;;18.00;99.90;;;;;;5050399;28;20552;-68
2022/05/30 04:52:00;;;;;;;8.83;6.23;;;18.30;99.90;;;;;;5050567;28;20993;-68
2022/05/30 04:54:27;;;;;;;8.90;7.37;;;18.40;99.90;;;;;;5050640;28;20461;-68
2022/05/30 04:56:54;;;;;;;8.20;6.67;;;18.50;99.90;;;;;;5050808;28;20457;-68
2022/05/30 04:59:21;;;;;;;13.37;6.93;;;18.60;99.90;;;;;;5050257;28;20553;-66
2022/05/30 05:01:49;;;;;;;10.10;8.30;;;18.80;99.90;;;;;;5050556;28;20454;-70
2022/05/30 05:04:16;;;;;;;12.77;8.40;;;18.80;99.90;;;;;;5050593;28;20540;-69
2022/05/30 05:06:44;;;;;;;11.20;9.03;;;18.90;99.90;;;;;;5050619;28;20937;-66
2022/05/30 05:09:31;;;;;;;9.60;8.40;;;18.80;99.90;;;;;;5050149;28;20501;-67
2022/05/30 05:11:58;;;;;;;11.73;8.93;;;18.90;99.90;;;;;;5049849;28;20500;-67
2022/05/30 05:14:25;;;;;;;13.47;9.40;;;19.00;99.90;;;;;;5050602;28;20469;-66
2022/05/30 05:16:52;;;;;;;11.70;9.37;;;19.20;99.90;;;;;;5050428;28;20454;-67
2022/05/30 05:19:19;;;;;;;11.10;9.67;;;19.30;99.90;;;;;;5050242;28;20478;-64
2022/05/30 05:21:46;;;;;;;12.87;9.13;;;19.30;99.90;;;;;;5050439;28;20445;-67
2022/05/30 05:24:16;;;;;;;14.23;10.23;;;19.50;99.90;;;;;;5050247;28;20539;-66
2022/05/30 05:26:47;;;;;;;12.37;9.60;;;19.60;99.90;;;;;;5050359;28;20540;-67
2022/05/30 05:29:14;;;;;;;12.00;9.77;;;19.80;99.90;;;;;;5049411;28;20489;-66
2022/05/30 05:31:41;;;;;;;14.47;12.43;;;20.00;99.90;;;;;;5050048;28;20500;-68
2022/05/30 05:34:11;;;;;;;14.30;12.20;;;19.90;99.90;;;;;;5049812;28;20454;-70
2022/05/30 05:36:41;;;;;;;16.60;13.10;;;19.70;99.90;;;;;;5049861;28;20949;-66
2022/05/30 05:39:09;;;;;;;13.17;11.87;;;19.40;99.90;;;;;;5049763;28;20504;-64
2022/05/30 05:41:37;;;;;;;17.23;12.50;;;19.70;99.90;;;;;;5049758;28;20486;-65
2022/05/30 05:44:06;;;;;;;14.13;11.40;;;19.70;99.90;;;;;;5049680;28;20461;-62
2022/05/30 05:46:33;;;;;;;29.07;14.43;;;19.80;99.90;;;;;;5049728;28;20465;-64
2022/05/30 05:49:00;;;;;;;17.13;12.30;;;20.00;99.90;;;;;;5050043;28;20476;-62
2022/05/30 05:51:28;;;;;;;17.50;12.63;;;20.00;99.90;;;;;;5049604;28;20485;-64
2022/05/30 05:53:56;;;;;;;15.20;13.60;;;20.20;99.90;;;;;;5049644;28;20798;-62
2022/05/30 05:56:26;;;;;;;16.70;13.40;;;20.30;99.90;;;;;;5049512;28;20826;-65
2022/05/30 05:58:54;;;;;;;17.40;14.30;;;20.30;99.90;;;;;;5049532;28;20485;-65
2022/05/30 06:01:24;;;;;;;19.27;12.57;;;20.50;99.90;;;;;;5049374;28;20453;-63
2022/05/30 06:03:53;;;;;;;19.27;13.00;;;20.60;99.90;;;;;;5049640;28;20453;-65
2022/05/30 06:06:20;;;;;;;17.47;15.10;;;20.80;99.90;;;;;;5049450;28;20450;-65
2022/05/30 06:08:47;;;;;;;17.83;14.80;;;20.90;99.90;;;;;;5049622;28;20474;-64
2022/05/30 06:11:15;;;;;;;18.20;14.83;;;20.90;99.90;;;;;;5049142;28;20490;-67
2022/05/30 06:13:44;;;;;;;16.53;14.30;;;21.00;99.90;;;;;;5050454;28;20533;-70
2022/05/30 06:16:14;;;;;;;15.83;14.00;;;21.10;99.90;;;;;;5049502;28;20489;-68
2022/05/30 06:18:43;;;;;;;15.40;13.37;;;21.10;99.90;;;;;;5049402;28;20481;-67
2022/05/30 06:21:10;;;;;;;21.13;12.97;;;21.10;99.90;;;;;;5049425;28;20453;-69
2022/05/30 06:23:37;;;;;;;16.90;13.70;;;21.20;99.90;;;;;;5052241;28;20458;-68
2022/05/30 06:26:09;;;;;;;16.00;13.63;;;21.40;99.90;;;;;;5053244;28;20453;-70
2022/05/30 06:28:37;;;;;;;13.63;12.23;;;21.40;99.90;;;;;;5053575;28;20848;-69
2022/05/30 06:31:08;;;;;;;16.87;12.93;;;21.50;99.90;;;;;;5053322;28;20494;-69
2022/05/30 06:33:35;;;;;;;18.60;13.00;;;21.50;99.90;;;;;;5053492;28;20625;-69
2022/05/30 06:36:06;;;;;;;14.83;13.17;;;21.40;99.90;;;;;;5035175;28;20452;-68
2022/05/30 06:38:33;;;;;;;17.47;14.07;;;21.50;99.90;;;;;;5052997;28;20476;-69
2022/05/30 06:41:12;;;;;;;16.27;13.30;;;21.50;99.90;;;;;;5053289;28;20471;-68
2022/05/30 06:43:40;;;;;;;15.57;13.27;;;21.60;99.90;;;;;;5053508;28;20793;-68
2022/05/30 06:46:07;;;;;;;18.80;13.93;;;21.90;99.90;;;;;;5053217;28;20456;-67
2022/05/30 06:48:34;;;;;;;13.53;12.13;;;22.00;99.90;;;;;;5052927;28;20469;-69
2022/05/30 06:51:05;;;;;;;15.60;12.37;;;22.00;99.90;;;;;;5052747;28;20876;-68
2022/05/30 06:53:32;;;;;;;15.03;12.63;;;22.00;99.90;;;;;;5052831;28;20450;-69
2022/05/30 06:56:00;;;;;;;14.23;11.30;;;22.30;99.90;;;;;;5053075;28;20461;-71
2022/05/30 06:58:27;;;;;;;13.03;11.63;;;22.50;99.90;;;;;;5052890;28;20807;-70
2022/05/30 07:01:00;;;;;;;16.43;11.43;;;22.50;99.90;;;;;;5052594;28;20545;-70
2022/05/30 07:03:28;;;;;;;13.10;11.80;;;22.20;99.90;;;;;;5052627;28;20481;-70
2022/05/30 07:05:55;;;;;;;14.13;11.97;;;21.90;99.90;;;;;;5052699;28;20458;-70
2022/05/30 07:08:23;;;;;;;13.80;11.90;;;21.90;99.90;;;;;;5052642;28;20801;-68
2022/05/30 07:10:51;;;;;;;13.37;11.80;;;21.90;99.90;;;;;;5052543;28;20450;-69
2022/05/30 07:13:19;;;;;;;13.67;12.20;;;22.00;99.90;;;;;;5052097;28;20525;-71
2022/05/30 07:15:48;;;;;;;15.60;13.83;;;22.30;99.90;;;;;;5052617;28;20464;-70
2022/05/30 07:18:17;;;;;;;14.17;11.83;;;22.20;99.90;;;;;;5052117;28;20478;-68
2022/05/30 07:20:45;;;;;;;25.33;12.03;;;22.00;99.90;;;;;;5052329;28;20492;-68
2022/05/30 07:23:13;;;;;;;14.27;12.40;;;22.00;99.90;;;;;;5052348;28;20456;-68
2022/05/30 07:25:42;;;;;;;14.03;12.50;;;21.80;99.90;;;;;;5051866;28;20548;-68
2022/05/30 07:28:12;;;;;;;12.83;11.10;;;21.90;99.90;;;;;;5052570;28;20470;-69
2022/05/30 07:30:40;;;;;;;15.80;13.47;;;22.20;99.90;;;;;;5052305;28;20458;-66
2022/05/30 07:33:08;;;;;;;13.63;12.23;;;22.70;99.90;;;;;;5051992;28;20485;-70
2022/05/30 07:35:35;;;;;;;12.93;10.97;;;22.90;99.90;;;;;;5051370;28;20465;-67
2022/05/30 07:38:02;;;;;;;13.07;11.60;;;23.20;99.90;;;;;;5051867;28;20454;-67
2022/05/30 07:40:29;;;;;;;15.03;12.57;;;23.50;99.90;;;;;;5051857;28;20792;-72
2022/05/30 07:42:58;;;;;;;13.80;11.87;;;23.40;99.90;;;;;;5051712;28;20485;-68
2022/05/30 07:45:25;;;;;;;13.43;11.73;;;23.40;99.90;;;;;;5051798;28;20450;-69
2022/05/30 07:47:53;;;;;;;13.87;12.17;;;23.60;99.90;;;;;;5051717;28;20515;-72
2022/05/30 07:50:20;;;;;;;12.30;10.77;;;23.70;99.90;;;;;;5051854;28;20859;-72
2022/05/30 07:52:47;;;;;;;15.13;12.13;;;23.90;99.90;;;;;;5051793;28;20492;-72
2022/05/30 07:55:14;;;;;;;13.87;12.47;;;24.00;99.90;;;;;;5051379;28;20465;-67
2022/05/30 07:57:55;;;;;;;12.23;10.93;;;24.00;99.90;;;;;;5051654;28;20549;-68
2022/05/30 08:00:27;;;;;;;12.77;10.87;;;24.40;99.90;;;;;;5051730;28;20458;-69
2022/05/30 08:02:54;;;;;;;15.37;11.10;;;24.70;99.90;;;;;;5051550;28;20458;-68
2022/05/30 08:05:22;;;;;;;13.83;10.27;;;24.30;99.90;;;;;;5051495;28;20442;-71
2022/05/30 08:07:49;;;;;;;14.87;10.90;;;24.10;99.90;;;;;;5051485;28;20461;-71
2022/05/30 08:10:17;;;;;;;13.63;11.93;;;24.30;99.90;;;;;;5051432;28;20481;-70
2022/05/30 08:12:44;;;;;;;11.60;9.77;;;24.60;99.90;;;;;;5051248;28;20489;-69
2022/05/30 08:15:12;;;;;;;11.53;10.30;;;24.50;99.90;;;;;;5051429;28;20462;-70
2022/05/30 08:17:41;;;;;;;12.27;9.73;;;24.60;99.90;;;;;;5051303;28;20844;-69
2022/05/30 08:20:12;;;;;;;11.93;10.70;;;24.90;99.90;;;;;;5050904;28;20574;-71
2022/05/30 08:22:39;;;;;;;16.27;11.17;;;25.20;99.90;;;;;;5051080;28;20472;-69
2022/05/30 08:25:10;;;;;;;12.83;10.47;;;25.10;99.90;;;;;;5051151;28;20449;-69
2022/05/30 08:27:37;;;;;;;10.83;9.70;;;25.40;99.90;;;;;;5051127;28;20460;-71
2022/05/30 08:30:06;;;;;;;15.20;9.60;;;25.60;99.90;;;;;;5051056;28;20543;-71
2022/05/30 08:32:34;;;;;;;11.70;9.90;;;25.40;99.90;;;;;;5050889;28;20490;-69
2022/05/30 08:35:05;;;;;;;11.10;9.87;;;25.30;99.90;;;;;;5050762;28;20508;-69
2022/05/30 08:37:32;;;;;;;13.50;9.77;;;25.30;99.90;;;;;;5050873;28;20457;-67
2022/05/30 08:42:45;;;;;;;17.90;10.67;;;25.10;99.90;;;;;;5050409;28;20477;-71
2022/05/30 08:45:17;;;;;;;10.90;8.90;;;25.40;99.90;;;;;;5050089;28;20945;-70
2022/05/30 08:47:52;;;;;;;15.90;9.80;;;25.70;99.90;;;;;;5049823;28;20930;-66
2022/05/30 08:50:36;;;;;;;10.10;9.00;;;26.00;99.90;;;;;;5050363;28;20480;-66
2022/05/30 08:53:36;;;;;;;12.47;9.40;;;26.00;99.90;;;;;;5050656;28;20493;-69
2022/05/30 08:56:12;;;;;;;12.27;9.37;;;26.00;99.90;;;;;;5045793;28;20977;-71
2022/05/30 08:58:52;;;;;;;10.03;8.33;;;26.00;99.90;;;;;;5050377;28;20470;-68
2022/05/30 09:01:23;;;;;;;9.80;8.30;;;26.00;99.90;;;;;;5050726;28;20487;-67
2022/05/30 09:04:08;;;;;;;11.83;9.60;;;26.20;99.90;;;;;;5050274;28;20445;-66
2022/05/30 09:06:43;;;;;;;10.37;8.33;;;26.30;99.90;;;;;;5050158;28;20457;-68
2022/05/30 09:09:25;;;;;;;7.60;5.40;;;26.50;99.90;;;;;;5086126;27;20906;-69
2022/05/30 09:11:58;;;;;;;9.70;6.13;;;26.40;99.90;;;;;;5087049;28;20447;-68
2022/05/30 09:14:33;;;;;;;9.87;6.53;;;26.60;99.90;;;;;;5086749;28;20448;-70
2022/05/30 09:17:04;;;;;;;11.30;8.00;;;26.80;99.90;;;;;;5086884;28;20456;-66
2022/05/30 09:19:31;;;;;;;9.60;7.00;;;27.00;99.90;;;;;;5086659;28;20479;-67
2022/05/30 09:22:01;;;;;;;7.50;6.47;;;27.00;99.90;;;;;;5086767;28;20448;-67
2022/05/30 09:24:31;;;;;;;9.50;7.07;;;27.10;99.90;;;;;;5086895;28;20461;-67
2022/05/30 09:26:59;;;;;;;8.93;6.63;;;27.20;99.90;;;;;;5086340;28;20916;-67
2022/05/30 09:29:30;;;;;;;9.40;7.40;;;27.30;99.90;;;;;;5086460;28;20467;-66
2022/05/30 09:32:10;;;;;;;13.13;7.63;;;27.30;99.90;;;;;;5086708;28;20547;-67
2022/05/30 09:34:45;;;;;;;11.60;9.00;;;27.20;99.90;;;;;;5086576;28;20459;-67
2022/05/30 09:37:25;;;;;;;9.40;7.00;;;27.10;99.90;;;;;;5086225;28;20504;-66
2022/05/30 09:39:54;;;;;;;10.27;7.50;;;26.90;99.90;;;;;;5086196;28;20501;-66
2022/05/30 09:42:29;;;;;;;8.20;7.10;;;26.80;99.90;;;;;;5086512;28;20455;-67
2022/05/30 09:45:00;;;;;;;9.27;6.50;;;26.90;99.90;;;;;;5086047;28;20452;-66
2022/05/30 09:47:27;;;;;;;10.17;7.67;;;27.00;99.90;;;;;;5086179;28;20492;-66
2022/05/30 09:49:55;;;;;;;9.10;6.90;;;27.20;99.90;;;;;;5086156;28;20463;-67
2022/05/30 09:52:37;;;;;;;11.10;7.23;;;27.30;99.90;;;;;;5086429;28;20452;-67
2022/05/30 09:55:25;;;;;;;11.63;7.47;;;27.30;99.90;;;;;;5086356;28;20449;-67
2022/05/30 09:57:54;;;;;;;15.23;8.20;;;27.60;99.90;;;;;;5086204;28;20918;-66
2022/05/30 10:00:33;;;;;;;9.17;7.70;;;27.60;99.90;;;;;;5086129;28;20460;-67
2022/05/30 10:03:03;;;;;;;10.23;7.60;;;27.60;99.90;;;;;;5086035;28;20581;-67
2022/05/30 10:05:33;;;;;;;11.63;7.40;;;27.60;99.90;;;;;;5085971;28;20492;-67
2022/05/30 10:08:02;;;;;;;11.30;8.43;;;27.50;99.80;;;;;;5085181;28;21083;-67
2022/05/30 10:10:34;;;;;;;11.63;7.60;;;27.50;99.90;;;;;;5085792;28;20543;-67
2022/05/30 10:13:02;;;;;;;13.30;7.87;;;27.60;99.40;;;;;;5086026;28;20459;-67
2022/05/30 10:15:32;;;;;;;8.10;7.00;;;27.60;99.90;;;;;;5085903;28;20477;-67
2022/05/30 10:18:14;;;;;;;15.60;7.87;;;27.90;99.90;;;;;;5085737;28;20498;-66
2022/05/30 10:20:48;;;;;;;8.17;6.20;;;28.00;98.80;;;;;;5071497;28;20556;-66
2022/05/30 10:29:31;;;;;;;7.83;5.50;;;28.30;97.60;;;;;;5032643;28;20580;-68
2022/05/30 10:32:06;;;;;;;6.77;5.90;;;28.40;96.90;;;;;;5071903;28;20459;-67
2022/05/30 10:35:09;;;;;;;9.70;6.60;;;28.30;96.70;;;;;;5072179;28;20458;-68
2022/05/30 10:37:50;;;;;;;7.60;5.30;;;28.50;97.10;;;;;;5071818;28;20469;-67
2022/05/30 10:40:29;;;;;;;10.30;6.30;;;28.80;96.20;;;;;;5071852;28;20485;-67
2022/05/30 10:43:06;;;;;;;8.17;7.10;;;29.00;96.20;;;;;;5071815;28;20453;-66
2022/05/30 10:45:44;;;;;;;10.73;6.30;;;28.90;96.00;;;;;;5071832;28;20865;-67
2022/05/30 10:48:19;;;;;;;8.70;6.50;;;29.10;95.00;;;;;;5071204;28;20841;-67
2022/05/30 10:50:54;;;;;;;10.40;8.37;;;29.00;94.90;;;;;;5071735;28;20522;-67
2022/05/30 10:53:30;;;;;;;8.70;5.77;;;29.20;94.60;;;;;;5071437;28;20937;-65
2022/05/30 10:56:03;;;;;;;8.10;6.10;;;29.40;93.20;;;;;;5071337;28;20461;-65
2022/05/30 10:58:37;;;;;;;10.27;6.53;;;29.60;92.20;;;;;;5071104;28;20786;-65
2022/05/30 11:01:11;;;;;;;13.37;6.80;;;29.60;93.40;;;;;;5071426;28;20444;-67
2022/05/30 11:03:44;;;;;;;9.00;7.10;;;29.70;92.20;;;;;;5071455;28;20528;-64
2022/05/30 11:06:20;;;;;;;10.63;6.00;;;29.70;91.80;;;;;;5070957;28;20456;-64
2022/05/30 11:08:55;;;;;;;9.63;6.40;;;29.80;92.70;;;;;;5070851;28;20598;-68
2022/05/30 11:11:33;;;;;;;12.47;7.47;;;30.10;91.50;;;;;;5071345;28;20453;-66
2022/05/30 11:14:11;;;;;;;14.07;6.53;;;30.20;91.80;;;;;;5071221;28;20445;-63
2022/05/30 11:16:43;;;;;;;8.80;6.60;;;30.30;91.30;;;;;;5070935;28;20804;-65
2022/05/30 11:19:15;;;;;;;8.87;7.03;;;30.50;87.80;;;;;;5071212;28;20473;-65
2022/05/30 11:21:48;;;;;;;9.27;5.77;;;30.50;85.10;;;;;;5070797;28;20460;-63
2022/05/30 11:24:16;;;;;;;8.33;6.23;;;30.30;86.30;;;;;;5070867;28;20453;-65
2022/05/30 11:27:05;;;;;;;7.00;6.00;;;30.10;84.20;;;;;;5070374;28;20460;-66
2022/05/30 11:30:23;;;;;;;9.87;6.60;;;30.00;84.70;;;;;;5070852;28;20520;-63
2022/05/30 11:33:28;;;;;;;6.60;5.90;;;30.00;85.00;;;;;;5057755;28;20445;-65
2022/05/30 11:36:07;;;;;;;9.20;5.50;;;30.20;80.30;;;;;;5066194;28;20928;-65
2022/05/30 11:38:47;;;;;;;7.63;6.17;;;30.30;79.40;;;;;;5070584;28;20488;-64
2022/05/30 11:41:38;;;;;;;12.00;6.30;;;30.40;80.50;;;;;;5070642;28;20459;-66
2022/05/30 11:44:37;;;;;;;10.07;6.07;;;30.60;81.20;;;;;;5070746;28;20452;-63
2022/05/30 11:47:22;;;;;;;9.40;5.43;;;30.80;81.40;;;;;;5064920;28;20797;-64
2022/05/30 11:49:59;;;;;;;11.90;6.50;;;30.50;78.30;;;;;;5070293;28;20480;-62
2022/05/30 11:52:34;;;;;;;10.00;5.97;;;30.30;80.50;;;;;;5070390;28;20460;-66
2022/05/30 11:55:21;;;;;;;7.80;5.90;;;30.60;80.50;;;;;;5070134;28;20812;-67
2022/05/30 11:57:50;;;;;;;11.63;6.70;;;30.90;79.80;;;;;;5069710;28;20534;-67
2022/05/30 12:00:32;;;;;;;9.07;5.53;;;31.10;78.10;;;;;;5070447;28;20940;-65
2022/05/30 12:03:24;;;;;;;11.00;5.80;;;31.10;76.70;;;;;;5070532;28;20459;-68
2022/05/30 12:06:15;;;;;;;11.00;4.97;;;31.20;72.80;;;;;;5070328;28;20867;-71
2022/05/30 12:09:09;;;;;;;9.53;5.27;;;31.40;74.90;;;;;;5069449;28;20505;-67
2022/05/30 12:11:55;;;;;;;11.50;5.77;;;31.70;71.50;;;;;;5069779;28;20820;-67
2022/05/30 12:14:44;;;;;;;6.80;5.40;;;31.80;68.20;;;;;;5070015;28;20449;-68
2022/05/30 12:17:33;;;;;;;8.70;5.30;;;31.90;67.10;;;;;;5069732;28;20506;-64
2022/05/30 12:25:52;;;;;;;11.50;5.53;;;32.00;65.70;;;;;;5070186;28;20522;-62
2022/05/30 12:28:54;;;;;;;7.33;5.87;;;32.10;67.20;;;;;;5069680;28;20499;-64
2022/05/30 12:31:36;;;;;;;8.93;5.17;;;32.40;71.20;;;;;;5070077;28;20480;-62
2022/05/30 12:34:05;;;;;;;7.80;5.07;;;32.70;68.50;;;;;;5070093;28;20464;-65
2022/05/30 12:36:46;;;;;;;6.73;5.40;;;32.80;67.70;;;;;;5069731;28;20449;-63
2022/05/30 12:39:39;;;;;;;9.90;4.50;;;32.80;64.90;;;;;;5069734;28;20864;-63
2022/05/30 12:42:10;;;;;;;10.33;6.07;;;32.80;64.80;;;;;;5069788;28;20559;-62
2022/05/30 12:44:54;;;;;;;8.60;5.80;;;33.10;68.90;;;;;;5069741;28;20459;-63
2022/05/30 12:47:28;;;;;;;7.77;5.53;;;33.40;70.50;;;;;;5069731;28;20825;-63
2022/05/30 12:50:31;;;;;;;7.80;4.63;;;33.60;61.50;;;;;;5069615;28;20537;-63
2022/05/30 12:53:00;;;;;;;7.20;4.33;;;33.30;56.30;;;;;;5064235;28;20865;-64
2022/05/30 12:55:39;;;;;;;10.00;4.60;;;33.30;56.20;;;;;;5069321;28;20789;-68
2022/05/30 12:58:07;;;;;;;7.67;5.37;;;33.40;58.00;;;;;;5069502;28;20481;-65
2022/05/30 13:01:09;;;;;;;10.13;5.07;;;33.60;56.50;;;;;;5069734;28;20449;-66
2022/05/30 13:03:45;;;;;;;9.20;5.50;;;33.80;56.20;;;;;;5069591;28;20492;-66
2022/05/30 13:06:19;;;;;;;8.70;4.83;;;33.90;58.10;;;;;;5069571;28;20476;-63
2022/05/30 13:09:30;;;;;;;9.67;4.80;;;34.00;55.90;;;;;;5069037;28;20558;-66
2022/05/30 13:12:22;;;;;;;8.30;4.90;;;33.90;60.20;;;;;;5033682;28;20463;-67
2022/05/30 13:15:19;;;;;;;10.40;4.80;;;34.20;56.00;;;;;;5069514;28;20457;-64
2022/05/30 13:17:57;;;;;;;10.33;4.40;;;33.80;52.20;;;;;;5064465;28;20535;-63
2022/05/30 13:20:28;;;;;;;8.50;4.60;;;33.50;52.20;;;;;;5069134;28;20445;-65
2022/05/30 13:22:59;;;;;;;7.07;4.20;;;33.10;54.60;;;;;;5069299;28;20453;-62
2022/05/30 13:25:30;;;;;;;8.40;5.00;;;33.40;57.30;;;;;;5069352;28;20535;-65
2022/05/30 13:28:05;;;;;;;8.50;4.47;;;33.90;58.10;;;;;;5069395;28;20496;-67